sensor_id;sensor_type;location;lat;lon;timestamp;pressure;altitude;pressure_sealevel;temperature;humidity
64080;BME280;51042;49.696;10.808;2022-11-20T00:02:16;97972.53;;;-0.14;100.00
64080;BME280;51042;49.696;10.808;2022-11-20T00:04:42;97967.16;;;-0.11;100.00
64080;BME280;51042;49.696;10.808;2022-11-20T00:07:07;97971.00;;;-0.12;100.00
64080;BME280;51042;49.696;10.808;2022-11-20T00:09:32;97969.47;;;-0.09;100.00
64080;BME280;51042;49.696;10.808;2022-11-20T00:11:58;97962.59;;;-0.03;100.00
64080;BME280;51042;49.696;10.808;2022-11-20T00:14:23;97962.22;;;0.02;100.00
64080;BME280;51042;49.696;10.808;2022-11-20T00:16:48;97954.94;;;0.06;100.00
64080;BME280;51042;49.696;10.808;2022-11-20T00:19:13;97947.66;;;0.10;100.00
64080;BME280;51042;49.696;10.808;2022-11-20T00:21:39;97954.91;;;0.03;100.00
64080;BME280;51042;49.696;10.808;2022-11-20T00:24:04;97942.16;;;-0.08;100.00
64080;BME280;51042;49.696;10.808;2022-11-20T00:26:30;97939.34;;;-0.22;100.00
64080;BME280;51042;49.696;10.808;2022-11-20T00:28:57;97952.03;;;-0.26;100.00
64080;BME280;51042;49.696;10.808;2022-11-20T00:31:24;97955.09;;;-0.24;100.00
64080;BME280;51042;49.696;10.808;2022-11-20T00:33:50;97960.56;;;-0.17;100.00
64080;BME280;51042;49.696;10.808;2022-11-20T00:36:17;97967.97;;;-0.07;100.00
64080;BME280;51042;49.696;10.808;2022-11-20T00:38:44;97970.31;;;0.02;100.00
64080;BME280;51042;49.696;10.808;2022-11-20T00:41:11;97958.38;;;0.03;100.00
64080;BME280;51042;49.696;10.808;2022-11-20T00:43:40;97953.28;;;-0.13;100.00
64080;BME280;51042;49.696;10.808;2022-11-20T00:46:07;97952.81;;;-0.22;100.00
64080;BME280;51042;49.696;10.808;2022-11-20T00:48:34;97970.97;;;-0.19;100.00
64080;BME280;51042;49.696;10.808;2022-11-20T00:51:00;97968.69;;;-0.13;100.00
64080;BME280;51042;49.696;10.808;2022-11-20T00:53:25;97977.22;;;-0.04;100.00
64080;BME280;51042;49.696;10.808;2022-11-20T00:55:52;97959.53;;;0.02;100.00
64080;BME280;51042;49.696;10.808;2022-11-20T00:58:19;97972.25;;;0.02;100.00
64080;BME280;51042;49.696;10.808;2022-11-20T01:00:44;97975.66;;;-0.09;100.00
64080;BME280;51042;49.696;10.808;2022-11-20T01:03:09;97977.56;;;-0.09;100.00
64080;BME280;51042;49.696;10.808;2022-11-20T01:05:35;97976.78;;;-0.13;100.00
64080;BME280;51042;49.696;10.808;2022-11-20T01:08:00;97979.06;;;-0.19;100.00
64080;BME280;51042;49.696;10.808;2022-11-20T01:10:26;97989.84;;;-0.15;100.00
64080;BME280;51042;49.696;10.808;2022-11-20T01:12:51;97975.19;;;-0.18;100.00
64080;BME280;51042;49.696;10.808;2022-11-20T01:15:36;97971.28;;;-0.27;100.00
64080;BME280;51042;49.696;10.808;2022-11-20T01:18:02;97978.22;;;-0.26;100.00
64080;BME280;51042;49.696;10.808;2022-11-20T01:20:27;97983.97;;;-0.28;100.00
64080;BME280;51042;49.696;10.808;2022-11-20T01:22:52;97989.38;;;-0.28;100.00
64080;BME280;51042;49.696;10.808;2022-11-20T01:25:18;97990.91;;;-0.30;100.00
64080;BME280;51042;49.696;10.808;2022-11-20T01:27:43;97988.94;;;-0.33;100.00
64080;BME280;51042;49.696;10.808;2022-11-20T01:30:08;97990.50;;;-0.32;100.00
64080;BME280;51042;49.696;10.808;2022-11-20T01:32:34;97977.75;;;-0.35;100.00
64080;BME280;51042;49.696;10.808;2022-11-20T01:34:59;97985.47;;;-0.34;100.00
64080;BME280;51042;49.696;10.808;2022-11-20T01:37:25;97976.25;;;-0.29;100.00
64080;BME280;51042;49.696;10.808;2022-11-20T01:39:50;97964.72;;;-0.30;100.00
64080;BME280;51042;49.696;10.808;2022-11-20T01:42:15;97972.00;;;-0.34;100.00
64080;BME280;51042;49.696;10.808;2022-11-20T01:44:59;97974.72;;;-0.30;100.00
64080;BME280;51042;49.696;10.808;2022-11-20T01:47:30;97969.34;;;-0.27;100.00
64080;BME280;51042;49.696;10.808;2022-11-20T01:52:36;97970.97;;;-0.19;100.00
64080;BME280;51042;49.696;10.808;2022-11-20T01:55:07;97985.16;;;-0.25;100.00
64080;BME280;51042;49.696;10.808;2022-11-20T01:57:38;97978.22;;;-0.23;100.00
64080;BME280;51042;49.696;10.808;2022-11-20T02:00:08;97978.59;;;-0.28;100.00
64080;BME280;51042;49.696;10.808;2022-11-20T02:02:35;97967.41;;;-0.30;100.00
64080;BME280;51042;49.696;10.808;2022-11-20T02:05:12;97971.25;;;-0.31;100.00
64080;BME280;51042;49.696;10.808;2022-11-20T02:07:45;97971.59;;;-0.36;100.00
64080;BME280;51042;49.696;10.808;2022-11-20T02:10:12;97963.88;;;-0.37;100.00
64080;BME280;51042;49.696;10.808;2022-11-20T02:12:37;97963.47;;;-0.43;100.00
64080;BME280;51042;49.696;10.808;2022-11-20T02:15:21;97960.38;;;-0.42;100.00
64080;BME280;51042;49.696;10.808;2022-11-20T02:17:47;97968.44;;;-0.42;100.00
64080;BME280;51042;49.696;10.808;2022-11-20T02:20:13;97965.81;;;-0.38;100.00
64080;BME280;51042;49.696;10.808;2022-11-20T02:22:41;97967.66;;;-0.46;100.00
64080;BME280;51042;49.696;10.808;2022-11-20T02:25:22;97961.13;;;-0.45;100.00
64080;BME280;51042;49.696;10.808;2022-11-20T02:27:49;97959.22;;;-0.44;100.00
64080;BME280;51042;49.696;10.808;2022-11-20T02:30:16;97957.66;;;-0.45;100.00
64080;BME280;51042;49.696;10.808;2022-11-20T02:32:41;97952.25;;;-0.45;100.00
64080;BME280;51042;49.696;10.808;2022-11-20T02:35:39;97951.91;;;-0.44;100.00
64080;BME280;51042;49.696;10.808;2022-11-20T02:37:56;97956.53;;;-0.41;100.00
64080;BME280;51042;49.696;10.808;2022-11-20T02:40:24;97967.00;;;-0.32;100.00
64080;BME280;51042;49.696;10.808;2022-11-20T02:42:53;97968.22;;;-0.26;100.00
64080;BME280;51042;49.696;10.808;2022-11-20T02:45:19;97963.66;;;-0.18;100.00
64080;BME280;51042;49.696;10.808;2022-11-20T02:47:45;97964.44;;;-0.14;100.00
64080;BME280;51042;49.696;10.808;2022-11-20T02:50:11;97951.28;;;-0.23;100.00
64080;BME280;51042;49.696;10.808;2022-11-20T02:52:36;97950.13;;;-0.22;100.00
64080;BME280;51042;49.696;10.808;2022-11-20T02:55:01;97948.50;;;-0.33;100.00
64080;BME280;51042;49.696;10.808;2022-11-20T02:57:27;97943.84;;;-0.40;100.00
64080;BME280;51042;49.696;10.808;2022-11-20T02:59:52;97941.91;;;-0.39;100.00
64080;BME280;51042;49.696;10.808;2022-11-20T03:02:18;97940.00;;;-0.39;100.00
64080;BME280;51042;49.696;10.808;2022-11-20T03:04:43;97948.44;;;-0.41;100.00
64080;BME280;51042;49.696;10.808;2022-11-20T03:07:09;97940.75;;;-0.42;100.00
64080;BME280;51042;49.696;10.808;2022-11-20T03:09:34;97937.28;;;-0.43;100.00
64080;BME280;51042;49.696;10.808;2022-11-20T03:12:00;97941.06;;;-0.47;100.00
64080;BME280;51042;49.696;10.808;2022-11-20T03:14:25;97934.91;;;-0.48;100.00
64080;BME280;51042;49.696;10.808;2022-11-20T03:16:50;97931.84;;;-0.50;100.00
64080;BME280;51042;49.696;10.808;2022-11-20T03:19:16;97933.75;;;-0.47;100.00
64080;BME280;51042;49.696;10.808;2022-11-20T03:21:41;97928.00;;;-0.45;100.00
64080;BME280;51042;49.696;10.808;2022-11-20T03:24:06;97937.66;;;-0.44;100.00
64080;BME280;51042;49.696;10.808;2022-11-20T03:26:32;97935.38;;;-0.42;100.00
64080;BME280;51042;49.696;10.808;2022-11-20T03:28:58;97940.41;;;-0.37;100.00
64080;BME280;51042;49.696;10.808;2022-11-20T03:31:27;97930.81;;;-0.31;100.00
64080;BME280;51042;49.696;10.808;2022-11-20T03:33:58;97928.50;;;-0.32;100.00
64080;BME280;51042;49.696;10.808;2022-11-20T03:36:24;97926.16;;;-0.34;100.00
64080;BME280;51042;49.696;10.808;2022-11-20T03:38:50;97934.59;;;-0.39;100.00
64080;BME280;51042;49.696;10.808;2022-11-20T03:41:17;97935.66;;;-0.51;100.00
64080;BME280;51042;49.696;10.808;2022-11-20T03:43:48;97934.53;;;-0.50;100.00
64080;BME280;51042;49.696;10.808;2022-11-20T03:46:17;97921.00;;;-0.53;100.00
64080;BME280;51042;49.696;10.808;2022-11-20T03:48:42;97917.16;;;-0.56;100.00
64080;BME280;51042;49.696;10.808;2022-11-20T03:51:09;97913.69;;;-0.56;100.00
64080;BME280;51042;49.696;10.808;2022-11-20T03:53:36;97921.75;;;-0.56;100.00
64080;BME280;51042;49.696;10.808;2022-11-20T03:56:01;97917.16;;;-0.56;100.00
64080;BME280;51042;49.696;10.808;2022-11-20T03:58:27;97917.53;;;-0.57;100.00
64080;BME280;51042;49.696;10.808;2022-11-20T04:00:52;97914.47;;;-0.56;100.00
64080;BME280;51042;49.696;10.808;2022-11-20T04:03:17;97919.06;;;-0.56;100.00
64080;BME280;51042;49.696;10.808;2022-11-20T04:05:43;97922.91;;;-0.57;100.00
64080;BME280;51042;49.696;10.808;2022-11-20T04:08:08;97927.16;;;-0.56;100.00
64080;BME280;51042;49.696;10.808;2022-11-20T04:10:34;97917.53;;;-0.57;100.00
64080;BME280;51042;49.696;10.808;2022-11-20T04:12:59;97920.22;;;-0.57;100.00
64080;BME280;51042;49.696;10.808;2022-11-20T04:15:24;97924.88;;;-0.54;100.00
64080;BME280;51042;49.696;10.808;2022-11-20T04:17:50;97914.53;;;-0.45;100.00
64080;BME280;51042;49.696;10.808;2022-11-20T04:20:15;97914.97;;;-0.39;100.00
64080;BME280;51042;49.696;10.808;2022-11-20T04:22:40;97905.31;;;-0.41;100.00
64080;BME280;51042;49.696;10.808;2022-11-20T04:25:06;97901.47;;;-0.43;100.00
64080;BME280;51042;49.696;10.808;2022-11-20T04:27:31;97904.91;;;-0.46;100.00
64080;BME280;51042;49.696;10.808;2022-11-20T04:29:57;97903.75;;;-0.49;100.00
64080;BME280;51042;49.696;10.808;2022-11-20T04:32:22;97903.69;;;-0.52;100.00
64080;BME280;51042;49.696;10.808;2022-11-20T04:34:47;97913.75;;;-0.49;100.00
64080;BME280;51042;49.696;10.808;2022-11-20T04:37:12;97895.31;;;-0.44;100.00
64080;BME280;51042;49.696;10.808;2022-11-20T04:39:38;97893.75;;;-0.48;100.00
64080;BME280;51042;49.696;10.808;2022-11-20T04:42:03;97892.19;;;-0.49;100.00
64080;BME280;51042;49.696;10.808;2022-11-20T04:44:47;97898.34;;;-0.49;100.00
64080;BME280;51042;49.696;10.808;2022-11-20T04:47:12;97891.78;;;-0.48;100.00
64080;BME280;51042;49.696;10.808;2022-11-20T04:49:38;97886.84;;;-0.42;100.00
64080;BME280;51042;49.696;10.808;2022-11-20T04:52:03;97896.44;;;-0.45;100.00
64080;BME280;51042;49.696;10.808;2022-11-20T04:54:28;97899.91;;;-0.44;100.00
64080;BME280;51042;49.696;10.808;2022-11-20T04:56:54;97893.03;;;-0.38;100.00
64080;BME280;51042;49.696;10.808;2022-11-20T04:59:19;97900.34;;;-0.38;100.00
64080;BME280;51042;49.696;10.808;2022-11-20T05:01:44;97896.84;;;-0.43;100.00
64080;BME280;51042;49.696;10.808;2022-11-20T05:04:10;97899.13;;;-0.48;100.00
64080;BME280;51042;49.696;10.808;2022-11-20T05:06:35;97898.72;;;-0.50;100.00
64080;BME280;51042;49.696;10.808;2022-11-20T05:09:01;97905.63;;;-0.53;100.00
64080;BME280;51042;49.696;10.808;2022-11-20T05:11:27;97899.88;;;-0.51;100.00
64080;BME280;51042;49.696;10.808;2022-11-20T05:13:54;97893.69;;;-0.52;100.00
64080;BME280;51042;49.696;10.808;2022-11-20T05:16:23;97893.69;;;-0.55;100.00
64080;BME280;51042;49.696;10.808;2022-11-20T05:18:49;97893.28;;;-0.57;100.00
64080;BME280;51042;49.696;10.808;2022-11-20T05:21:16;97900.63;;;-0.51;100.00
64080;BME280;51042;49.696;10.808;2022-11-20T05:23:42;97896.81;;;-0.46;100.00
64080;BME280;51042;49.696;10.808;2022-11-20T05:26:12;97909.94;;;-0.41;100.00
64080;BME280;51042;49.696;10.808;2022-11-20T05:28:42;97900.72;;;-0.40;100.00
64080;BME280;51042;49.696;10.808;2022-11-20T05:31:11;97898.00;;;-0.40;100.00
64080;BME280;51042;49.696;10.808;2022-11-20T05:33:42;97888.78;;;-0.39;100.00
64080;BME280;51042;49.696;10.808;2022-11-20T05:36:09;97888.38;;;-0.45;100.00
64080;BME280;51042;49.696;10.808;2022-11-20T05:38:35;97882.97;;;-0.48;100.00
64080;BME280;51042;49.696;10.808;2022-11-20T05:41:04;97879.50;;;-0.45;100.00
64080;BME280;51042;49.696;10.808;2022-11-20T05:43:36;97879.16;;;-0.40;100.00
64080;BME280;51042;49.696;10.808;2022-11-20T05:46:04;97880.69;;;-0.39;100.00
64080;BME280;51042;49.696;10.808;2022-11-20T05:48:30;97875.31;;;-0.39;100.00
64080;BME280;51042;49.696;10.808;2022-11-20T05:50:57;97880.31;;;-0.37;100.00
64080;BME280;51042;49.696;10.808;2022-11-20T05:53:24;97878.81;;;-0.31;100.00
64080;BME280;51042;49.696;10.808;2022-11-20T05:56:23;97880.75;;;-0.28;100.00
64080;BME280;51042;49.696;10.808;2022-11-20T05:58:43;97885.78;;;-0.27;100.00
64080;BME280;51042;49.696;10.808;2022-11-20T06:01:10;97879.59;;;-0.31;100.00
64080;BME280;51042;49.696;10.808;2022-11-20T06:03:39;97869.97;;;-0.32;100.00
64080;BME280;51042;49.696;10.808;2022-11-20T06:06:05;97879.19;;;-0.33;100.00
64080;BME280;51042;49.696;10.808;2022-11-20T06:08:32;97882.31;;;-0.31;100.00
64080;BME280;51042;49.696;10.808;2022-11-20T06:10:57;97878.84;;;-0.28;100.00
64080;BME280;51042;49.696;10.808;2022-11-20T06:13:23;97874.22;;;-0.31;100.00
64080;BME280;51042;49.696;10.808;2022-11-20T06:15:52;97870.34;;;-0.33;100.00
64080;BME280;51042;49.696;10.808;2022-11-20T06:18:18;97871.88;;;-0.36;100.00
64080;BME280;51042;49.696;10.808;2022-11-20T06:20:44;97884.22;;;-0.31;100.00
64080;BME280;51042;49.696;10.808;2022-11-20T06:23:10;97878.47;;;-0.26;100.00
64080;BME280;51042;49.696;10.808;2022-11-20T06:25:37;97876.91;;;-0.27;100.00
64080;BME280;51042;49.696;10.808;2022-11-20T06:28:05;97873.44;;;-0.31;100.00
64080;BME280;51042;49.696;10.808;2022-11-20T06:30:31;97869.97;;;-0.32;100.00
64080;BME280;51042;49.696;10.808;2022-11-20T06:32:56;97877.28;;;-0.32;100.00
64080;BME280;51042;49.696;10.808;2022-11-20T06:35:22;97876.16;;;-0.28;100.00
64080;BME280;51042;49.696;10.808;2022-11-20T06:37:47;97877.31;;;-0.25;100.00
64080;BME280;51042;49.696;10.808;2022-11-20T06:40:12;97880.03;;;-0.22;100.00
64080;BME280;51042;49.696;10.808;2022-11-20T06:42:38;97878.88;;;-0.21;100.00
64080;BME280;51042;49.696;10.808;2022-11-20T06:45:03;97886.22;;;-0.18;100.00
64080;BME280;51042;49.696;10.808;2022-11-20T06:47:29;97877.78;;;-0.13;100.00
64080;BME280;51042;49.696;10.808;2022-11-20T06:49:54;97887.41;;;-0.12;100.00
64080;BME280;51042;49.696;10.808;2022-11-20T06:52:20;97888.22;;;-0.08;100.00
64080;BME280;51042;49.696;10.808;2022-11-20T06:54:45;97893.59;;;-0.08;100.00
64080;BME280;51042;49.696;10.808;2022-11-20T06:57:11;97882.78;;;-0.11;100.00
64080;BME280;51042;49.696;10.808;2022-11-20T06:59:36;97888.22;;;-0.04;100.00
64080;BME280;51042;49.696;10.808;2022-11-20T07:02:01;97888.63;;;-0.02;100.00
64080;BME280;51042;49.696;10.808;2022-11-20T07:04:27;97885.53;;;-0.04;100.00
64080;BME280;51042;49.696;10.808;2022-11-20T07:06:52;97900.19;;;-0.02;100.00
64080;BME280;51042;49.696;10.808;2022-11-20T07:09:17;97899.38;;;-0.06;100.00
64080;BME280;51042;49.696;10.808;2022-11-20T07:11:43;97902.06;;;-0.09;100.00
64080;BME280;51042;49.696;10.808;2022-11-20T07:14:08;97898.22;;;-0.08;100.00
64080;BME280;51042;49.696;10.808;2022-11-20T07:16:33;97897.03;;;-0.11;100.00
64080;BME280;51042;49.696;10.808;2022-11-20T07:18:59;97905.53;;;-0.12;100.00
64080;BME280;51042;49.696;10.808;2022-11-20T07:21:24;97897.44;;;-0.09;100.00
64080;BME280;51042;49.696;10.808;2022-11-20T07:23:49;97897.81;;;-0.10;100.00
64080;BME280;51042;49.696;10.808;2022-11-20T07:26:15;97905.53;;;-0.12;100.00
64080;BME280;51042;49.696;10.808;2022-11-20T07:28:43;97902.84;;;-0.09;100.00
64080;BME280;51042;49.696;10.808;2022-11-20T07:31:09;97902.88;;;-0.02;100.00
64080;BME280;51042;49.696;10.808;2022-11-20T07:33:34;97903.69;;;0.06;100.00
64080;BME280;51042;49.696;10.808;2022-11-20T07:36:00;97905.63;;;0.06;100.00
64080;BME280;51042;49.696;10.808;2022-11-20T07:38:25;97902.16;;;0.05;100.00
64080;BME280;51042;49.696;10.808;2022-11-20T07:40:53;97907.56;;;0.09;100.00
64080;BME280;51042;49.696;10.808;2022-11-20T07:43:22;97903.72;;;0.13;100.00
64080;BME280;51042;49.696;10.808;2022-11-20T07:45:48;97910.28;;;0.16;100.00
64080;BME280;51042;49.696;10.808;2022-11-20T07:48:13;97905.31;;;0.25;100.00
64080;BME280;51042;49.696;10.808;2022-11-20T07:50:38;97896.50;;;0.35;100.00
64080;BME280;51042;49.696;10.808;2022-11-20T07:53:04;97903.09;;;0.41;100.00
64080;BME280;51042;49.696;10.808;2022-11-20T07:55:30;97898.81;;;0.33;100.00
64080;BME280;51042;49.696;10.808;2022-11-20T07:57:56;97901.88;;;0.31;100.00
64080;BME280;51042;49.696;10.808;2022-11-20T08:00:23;97901.53;;;0.44;100.00
64080;BME280;51042;49.696;10.808;2022-11-20T08:02:49;97898.53;;;0.59;100.00
64080;BME280;51042;49.696;10.808;2022-11-20T08:05:14;97897.00;;;0.65;100.00
64080;BME280;51042;49.696;10.808;2022-11-20T08:07:40;97888.13;;;0.68;100.00
64080;BME280;51042;49.696;10.808;2022-11-20T08:10:08;97894.34;;;0.76;100.00
64080;BME280;51042;49.696;10.808;2022-11-20T08:12:34;97897.03;;;0.79;100.00
64080;BME280;51042;49.696;10.808;2022-11-20T08:15:19;97898.56;;;0.84;100.00
64080;BME280;51042;49.696;10.808;2022-11-20T08:17:44;97897.81;;;0.83;100.00
64080;BME280;51042;49.696;10.808;2022-11-20T08:20:09;97898.56;;;0.84;100.00
64080;BME280;51042;49.696;10.808;2022-11-20T08:22:35;97890.88;;;0.90;100.00
64080;BME280;51042;49.696;10.808;2022-11-20T08:25:00;97893.97;;;0.88;100.00
64080;BME280;51042;49.696;10.808;2022-11-20T08:27:26;97896.28;;;0.90;100.00
64080;BME280;51042;49.696;10.808;2022-11-20T08:29:52;97894.31;;;0.79;100.00
64080;BME280;51042;49.696;10.808;2022-11-20T08:32:17;97897.41;;;0.78;100.00
64080;BME280;51042;49.696;10.808;2022-11-20T08:34:42;97899.34;;;0.70;100.00
64080;BME280;51042;49.696;10.808;2022-11-20T08:37:07;97894.69;;;0.74;100.00
64080;BME280;51042;49.696;10.808;2022-11-20T08:39:33;97901.69;;;0.82;100.00
64080;BME280;51042;49.696;10.808;2022-11-20T08:41:58;97895.13;;;0.87;100.00
64080;BME280;51042;49.696;10.808;2022-11-20T08:44:23;97895.13;;;0.91;100.00
64080;BME280;51042;49.696;10.808;2022-11-20T08:46:49;97887.78;;;0.91;100.00
64080;BME280;51042;49.696;10.808;2022-11-20T08:49:14;97888.16;;;0.90;100.00
64080;BME280;51042;49.696;10.808;2022-11-20T08:51:40;97887.78;;;0.84;100.00
64080;BME280;51042;49.696;10.808;2022-11-20T08:54:06;97887.78;;;0.84;100.00
64080;BME280;51042;49.696;10.808;2022-11-20T08:56:32;97888.94;;;0.90;100.00
64080;BME280;51042;49.696;10.808;2022-11-20T08:58:59;97894.00;;;0.95;100.00
64080;BME280;51042;49.696;10.808;2022-11-20T09:01:24;97889.75;;;1.05;100.00
64080;BME280;51042;49.696;10.808;2022-11-20T09:03:50;97904.81;;;1.13;100.00
64080;BME280;51042;49.696;10.808;2022-11-20T09:06:16;97897.47;;;1.10;100.00
64080;BME280;51042;49.696;10.808;2022-11-20T09:08:42;97904.44;;;1.18;100.00
64080;BME280;51042;49.696;10.808;2022-11-20T09:11:07;97895.16;;;1.22;100.00
64080;BME280;51042;49.696;10.808;2022-11-20T09:13:34;97879.72;;;1.12;100.00
64080;BME280;51042;49.696;10.808;2022-11-20T09:16:02;97887.81;;;1.09;100.00
64080;BME280;51042;49.696;10.808;2022-11-20T09:18:29;97887.03;;;1.08;100.00
64080;BME280;51042;49.696;10.808;2022-11-20T09:20:59;97889.38;;;1.10;100.00
64080;BME280;51042;49.696;10.808;2022-11-20T09:23:25;97887.44;;;1.14;100.00
64080;BME280;51042;49.696;10.808;2022-11-20T09:25:51;97895.19;;;1.19;100.00
64080;BME280;51042;49.696;10.808;2022-11-20T09:28:17;97896.34;;;1.25;100.00
64080;BME280;51042;49.696;10.808;2022-11-20T09:30:43;97899.41;;;1.13;100.00
64080;BME280;51042;49.696;10.808;2022-11-20T09:33:09;97901.69;;;1.07;100.00
64080;BME280;51042;49.696;10.808;2022-11-20T09:35:34;97902.09;;;1.06;100.00
64080;BME280;51042;49.696;10.808;2022-11-20T09:38:04;97899.78;;;1.08;100.00
64080;BME280;51042;49.696;10.808;2022-11-20T09:40:31;97903.66;;;1.10;100.00
64080;BME280;51042;49.696;10.808;2022-11-20T09:42:57;97893.63;;;1.18;100.00
64080;BME280;51042;49.696;10.808;2022-11-20T09:51:39;97895.16;;;1.61;100.00
64080;BME280;51042;49.696;10.808;2022-11-20T09:56:46;97905.22;;;1.40;100.00
64080;BME280;51042;49.696;10.808;2022-11-20T10:01:56;97896.31;;;1.57;100.00
64080;BME280;51042;49.696;10.808;2022-11-20T10:04:24;97883.19;;;1.70;100.00
64080;BME280;51042;49.696;10.808;2022-11-20T10:07:04;97883.16;;;1.84;100.00
64080;BME280;51042;49.696;10.808;2022-11-20T10:09:48;97881.97;;;1.85;100.00
64080;BME280;51042;49.696;10.808;2022-11-20T10:12:20;97878.91;;;1.76;100.00
64080;BME280;51042;49.696;10.808;2022-11-20T10:18:01;97874.25;;;1.80;100.00
64080;BME280;51042;49.696;10.808;2022-11-20T10:20:53;97872.75;;;1.75;100.00
64080;BME280;51042;49.696;10.808;2022-11-20T10:29:09;97875.84;;;1.67;100.00
64080;BME280;51042;49.696;10.808;2022-11-20T10:31:45;97869.25;;;1.75;100.00
64080;BME280;51042;49.696;10.808;2022-11-20T10:37:08;97863.44;;;1.87;100.00
64080;BME280;51042;49.696;10.808;2022-11-20T10:42:43;97862.69;;;1.76;100.00
64080;BME280;51042;49.696;10.808;2022-11-20T10:47:49;97875.88;;;1.24;100.00
64080;BME280;51042;49.696;10.808;2022-11-20T10:50:18;97883.56;;;1.43;100.00
64080;BME280;51042;49.696;10.808;2022-11-20T10:55:55;97891.25;;;2.01;100.00
64080;BME280;51042;49.696;10.808;2022-11-20T10:58:42;97889.66;;;2.11;100.00
64080;BME280;51042;49.696;10.808;2022-11-20T11:01:24;97888.47;;;2.26;100.00
64080;BME280;51042;49.696;10.808;2022-11-20T11:03:51;97894.25;;;2.28;100.00
64080;BME280;51042;49.696;10.808;2022-11-20T11:08:43;97893.41;;;2.45;100.00
64080;BME280;51042;49.696;10.808;2022-11-20T11:11:18;97872.53;;;2.42;100.00
64080;BME280;51042;49.696;10.808;2022-11-20T11:13:47;97872.06;;;2.62;100.00
64080;BME280;51042;49.696;10.808;2022-11-20T11:16:22;97872.63;;;3.49;100.00
64080;BME280;51042;49.696;10.808;2022-11-20T11:18:51;97861.59;;;3.67;100.00
64080;BME280;51042;49.696;10.808;2022-11-20T11:21:23;97853.81;;;4.06;100.00
64080;BME280;51042;49.696;10.808;2022-11-20T11:24:00;97846.31;;;3.87;100.00
64080;BME280;51042;49.696;10.808;2022-11-20T11:26:27;97845.59;;;3.39;100.00
64080;BME280;51042;49.696;10.808;2022-11-20T11:28:54;97840.78;;;3.94;100.00
64080;BME280;51042;49.696;10.808;2022-11-20T11:31:33;97835.94;;;4.43;100.00
64080;BME280;51042;49.696;10.808;2022-11-20T11:34:06;97838.81;;;4.59;97.11
64080;BME280;51042;49.696;10.808;2022-11-20T11:36:39;97832.84;;;4.71;97.69
64080;BME280;51042;49.696;10.808;2022-11-20T11:39:05;97842.50;;;4.76;97.00
64080;BME280;51042;49.696;10.808;2022-11-20T11:41:36;97830.03;;;4.48;97.65
64080;BME280;51042;49.696;10.808;2022-11-20T11:47:01;97832.69;;;3.91;99.79
64080;BME280;51042;49.696;10.808;2022-11-20T11:49:28;97822.25;;;3.48;100.00
64080;BME280;51042;49.696;10.808;2022-11-20T11:57:54;97825.22;;;3.20;100.00
64080;BME280;51042;49.696;10.808;2022-11-20T12:03:27;97814.72;;;3.22;100.00
64080;BME280;51042;49.696;10.808;2022-11-20T12:05:37;97820.88;;;3.29;100.00
64080;BME280;51042;49.696;10.808;2022-11-20T12:08:24;97821.25;;;3.32;100.00
64080;BME280;51042;49.696;10.808;2022-11-20T12:15:58;97828.84;;;2.99;100.00
64080;BME280;51042;49.696;10.808;2022-11-20T12:18:24;97824.13;;;3.10;100.00
64080;BME280;51042;49.696;10.808;2022-11-20T12:37:38;97825.16;;;3.68;100.00
64080;BME280;51042;49.696;10.808;2022-11-20T12:39:51;97828.59;;;3.72;100.00
64080;BME280;51042;49.696;10.808;2022-11-20T12:59:46;97821.00;;;3.15;100.00
64080;BME280;51042;49.696;10.808;2022-11-20T13:07:41;97814.66;;;3.29;100.00
64080;BME280;51042;49.696;10.808;2022-11-20T13:10:14;97807.31;;;3.29;100.00
64080;BME280;51042;49.696;10.808;2022-11-20T13:12:50;97810.41;;;3.32;100.00
64080;BME280;51042;49.696;10.808;2022-11-20T13:18:39;97805.19;;;3.07;100.00
64080;BME280;51042;49.696;10.808;2022-11-20T13:22:08;97799.00;;;3.06;100.00
64080;BME280;51042;49.696;10.808;2022-11-20T13:24:04;97810.22;;;3.05;100.00
64080;BME280;51042;49.696;10.808;2022-11-20T13:26:31;97806.78;;;3.01;100.00
64080;BME280;51042;49.696;10.808;2022-11-20T13:29:40;97809.91;;;2.96;100.00
64080;BME280;51042;49.696;10.808;2022-11-20T13:31:46;97803.75;;;2.92;100.00
64080;BME280;51042;49.696;10.808;2022-11-20T13:34:14;97807.31;;;2.81;100.00
64080;BME280;51042;49.696;10.808;2022-11-20T13:36:49;97813.84;;;2.87;100.00
64080;BME280;51042;49.696;10.808;2022-11-20T13:39:35;97808.03;;;2.89;100.00
64080;BME280;51042;49.696;10.808;2022-11-20T13:42:54;97817.66;;;2.94;100.00
64080;BME280;51042;49.696;10.808;2022-11-20T13:44:55;97821.91;;;2.95;100.00
64080;BME280;51042;49.696;10.808;2022-11-20T13:47:33;97814.16;;;2.97;100.00
64080;BME280;51042;49.696;10.808;2022-11-20T13:50:00;97821.50;;;3.00;100.00
64080;BME280;51042;49.696;10.808;2022-11-20T14:00:27;97818.47;;;2.87;100.00
64080;BME280;51042;49.696;10.808;2022-11-20T14:05:30;97806.88;;;2.86;100.00
64080;BME280;51042;49.696;10.808;2022-11-20T14:08:00;97814.22;;;2.86;100.00
64080;BME280;51042;49.696;10.808;2022-11-20T14:10:29;97815.06;;;2.79;100.00
64080;BME280;51042;49.696;10.808;2022-11-20T14:12:55;97808.94;;;2.72;100.00
64080;BME280;51042;49.696;10.808;2022-11-20T14:15:31;97808.97;;;2.65;100.00
64080;BME280;51042;49.696;10.808;2022-11-20T14:17:58;97802.34;;;2.69;100.00
64080;BME280;51042;49.696;10.808;2022-11-20T14:20:26;97803.88;;;2.74;100.00
64080;BME280;51042;49.696;10.808;2022-11-20T14:22:54;97802.69;;;2.78;100.00
64080;BME280;51042;49.696;10.808;2022-11-20T14:25:21;97796.50;;;2.78;100.00
64080;BME280;51042;49.696;10.808;2022-11-20T14:27:57;97799.94;;;2.85;100.00
64080;BME280;51042;49.696;10.808;2022-11-20T14:30:28;97802.22;;;2.87;100.00
64080;BME280;51042;49.696;10.808;2022-11-20T14:33:03;97792.97;;;2.84;100.00
64080;BME280;51042;49.696;10.808;2022-11-20T14:35:29;97799.16;;;2.85;100.00
64080;BME280;51042;49.696;10.808;2022-11-20T14:37:58;97787.13;;;2.86;100.00